Altitude, Mississippi
Current Conditions -  °F | °C
As of 7:55 AM on Wednesday 26 Nov 2014 (Local Time) from KCRX Reporting Station
Clear Clear  
Wind Chill: -1°   Ceiling: Unl
Heat Index: -1°   Visibility: 10mi
Dew Point: -3°   Wind: 0mph
Humidity: 86%   Direction: NA
Pressure: 30.16"   Gusts: NA
Location:  34.6741°N, 88.5234°W
Report Text: KCRX 261355Z AUTO 00000KT 10SM CLR M01/M03 A3016 RMK AO2
Loading
Personal Weather Stations






























Interactive Weather Map New forecast layout! Learn more

10-Day Weather Forecast

Advertisements
Track Severe Weather on mobile